sensor_id;sensor_type;location;lat;lon;timestamp;temperature;humidity
65460;DHT22;52058;49.822;6.754;2023-03-23T00:01:48;12.08;83.73
65460;DHT22;52058;49.822;6.754;2023-03-23T00:04:15;12.01;84.46
65460;DHT22;52058;49.822;6.754;2023-03-23T00:06:42;11.99;83.67
65460;DHT22;52058;49.822;6.754;2023-03-23T00:09:10;11.99;83.45
65460;DHT22;52058;49.822;6.754;2023-03-23T00:11:37;11.98;84.43
65460;DHT22;52058;49.822;6.754;2023-03-23T00:14:04;11.97;84.13
65460;DHT22;52058;49.822;6.754;2023-03-23T00:16:32;11.99;83.97
65460;DHT22;52058;49.822;6.754;2023-03-23T00:19:04;12.02;82.94
65460;DHT22;52058;49.822;6.754;2023-03-23T00:21:33;11.99;83.87
65460;DHT22;52058;49.822;6.754;2023-03-23T00:24:02;11.97;84.02
65460;DHT22;52058;49.822;6.754;2023-03-23T00:26:29;11.95;83.62
65460;DHT22;52058;49.822;6.754;2023-03-23T00:28:59;11.93;84.51
65460;DHT22;52058;49.822;6.754;2023-03-23T00:31:26;11.90;84.13
65460;DHT22;52058;49.822;6.754;2023-03-23T00:33:58;11.93;83.56
65460;DHT22;52058;49.822;6.754;2023-03-23T00:36:26;11.97;84.30
65460;DHT22;52058;49.822;6.754;2023-03-23T00:38:53;11.97;83.06
65460;DHT22;52058;49.822;6.754;2023-03-23T00:41:23;11.95;83.77
65460;DHT22;52058;49.822;6.754;2023-03-23T00:43:52;11.98;83.24
65460;DHT22;52058;49.822;6.754;2023-03-23T00:46:19;11.97;83.00
65460;DHT22;52058;49.822;6.754;2023-03-23T00:48:46;11.98;82.72
65460;DHT22;52058;49.822;6.754;2023-03-23T00:51:14;11.95;83.23
65460;DHT22;52058;49.822;6.754;2023-03-23T00:53:40;11.97;83.75
65460;DHT22;52058;49.822;6.754;2023-03-23T00:56:08;11.98;84.05
65460;DHT22;52058;49.822;6.754;2023-03-23T00:58:35;11.95;82.79
65460;DHT22;52058;49.822;6.754;2023-03-23T01:01:02;11.88;84.20
65460;DHT22;52058;49.822;6.754;2023-03-23T01:03:30;11.86;84.40
65460;DHT22;52058;49.822;6.754;2023-03-23T01:05:56;11.83;85.27
65460;DHT22;52058;49.822;6.754;2023-03-23T01:08:25;11.77;85.33
65460;DHT22;52058;49.822;6.754;2023-03-23T01:11:01;11.76;85.79
65460;DHT22;52058;49.822;6.754;2023-03-23T01:13:28;11.77;84.74
65460;DHT22;52058;49.822;6.754;2023-03-23T01:15:55;11.77;85.30
65460;DHT22;52058;49.822;6.754;2023-03-23T01:18:21;11.77;85.24
65460;DHT22;52058;49.822;6.754;2023-03-23T01:20:48;11.78;85.22
65460;DHT22;52058;49.822;6.754;2023-03-23T01:23:15;11.76;85.80
65460;DHT22;52058;49.822;6.754;2023-03-23T01:25:43;11.73;85.97
65460;DHT22;52058;49.822;6.754;2023-03-23T01:28:10;11.73;86.54
65460;DHT22;52058;49.822;6.754;2023-03-23T01:30:37;11.70;86.03
65460;DHT22;52058;49.822;6.754;2023-03-23T01:33:04;11.67;87.00
65460;DHT22;52058;49.822;6.754;2023-03-23T01:35:30;11.67;86.89
65460;DHT22;52058;49.822;6.754;2023-03-23T01:37:57;11.63;88.15
65460;DHT22;52058;49.822;6.754;2023-03-23T01:40:26;11.57;88.46
65460;DHT22;52058;49.822;6.754;2023-03-23T01:42:54;11.50;88.99
65460;DHT22;52058;49.822;6.754;2023-03-23T01:45:25;11.44;90.84
65460;DHT22;52058;49.822;6.754;2023-03-23T01:47:57;11.36;90.85
65460;DHT22;52058;49.822;6.754;2023-03-23T01:50:27;11.35;90.12
65460;DHT22;52058;49.822;6.754;2023-03-23T01:52:56;11.26;91.66
65460;DHT22;52058;49.822;6.754;2023-03-23T01:55:26;11.16;91.40
65460;DHT22;52058;49.822;6.754;2023-03-23T01:57:55;11.14;91.07
65460;DHT22;52058;49.822;6.754;2023-03-23T02:00:24;11.04;92.42
65460;DHT22;52058;49.822;6.754;2023-03-23T02:02:51;11.02;93.01
65460;DHT22;52058;49.822;6.754;2023-03-23T02:05:22;11.02;92.23
65460;DHT22;52058;49.822;6.754;2023-03-23T02:07:52;10.97;93.97
65460;DHT22;52058;49.822;6.754;2023-03-23T02:10:19;10.98;92.15
65460;DHT22;52058;49.822;6.754;2023-03-23T02:12:45;10.94;93.84
65460;DHT22;52058;49.822;6.754;2023-03-23T02:15:13;10.99;93.05
65460;DHT22;52058;49.822;6.754;2023-03-23T02:17:46;11.06;91.89
65460;DHT22;52058;49.822;6.754;2023-03-23T02:20:33;11.05;93.07
65460;DHT22;52058;49.822;6.754;2023-03-23T02:23:19;11.09;92.45
65460;DHT22;52058;49.822;6.754;2023-03-23T02:25:59;11.08;92.86
65460;DHT22;52058;49.822;6.754;2023-03-23T02:31:42;10.97;93.43
65460;DHT22;52058;49.822;6.754;2023-03-23T02:34:13;10.97;93.94
65460;DHT22;52058;49.822;6.754;2023-03-23T02:36:46;10.98;93.90
65460;DHT22;52058;49.822;6.754;2023-03-23T02:39:18;10.95;93.79
65460;DHT22;52058;49.822;6.754;2023-03-23T02:41:50;10.97;93.61
65460;DHT22;52058;49.822;6.754;2023-03-23T02:44:19;10.99;93.78
65460;DHT22;52058;49.822;6.754;2023-03-23T02:46:46;10.99;93.81
65460;DHT22;52058;49.822;6.754;2023-03-23T02:49:16;11.01;93.82
65460;DHT22;52058;49.822;6.754;2023-03-23T02:51:46;10.97;94.02
65460;DHT22;52058;49.822;6.754;2023-03-23T02:54:14;10.98;94.18
65460;DHT22;52058;49.822;6.754;2023-03-23T02:56:43;10.98;94.86
65460;DHT22;52058;49.822;6.754;2023-03-23T02:59:10;10.98;94.62
65460;DHT22;52058;49.822;6.754;2023-03-23T03:01:59;11.09;93.62
65460;DHT22;52058;49.822;6.754;2023-03-23T03:04:30;11.11;93.79
65460;DHT22;52058;49.822;6.754;2023-03-23T03:07:30;11.14;93.37
65460;DHT22;52058;49.822;6.754;2023-03-23T03:10:04;11.15;93.76
65460;DHT22;52058;49.822;6.754;2023-03-23T03:12:37;11.20;93.19
65460;DHT22;52058;49.822;6.754;2023-03-23T03:15:12;11.23;93.53
65460;DHT22;52058;49.822;6.754;2023-03-23T03:17:46;11.26;92.87
65460;DHT22;52058;49.822;6.754;2023-03-23T03:20:16;11.23;93.37
65460;DHT22;52058;49.822;6.754;2023-03-23T03:22:44;11.22;93.21
65460;DHT22;52058;49.822;6.754;2023-03-23T03:25:14;11.25;93.30
65460;DHT22;52058;49.822;6.754;2023-03-23T03:27:43;11.28;92.86
65460;DHT22;52058;49.822;6.754;2023-03-23T03:30:14;11.32;92.92
65460;DHT22;52058;49.822;6.754;2023-03-23T03:32:44;11.33;92.46
65460;DHT22;52058;49.822;6.754;2023-03-23T03:35:14;11.36;92.28
65460;DHT22;52058;49.822;6.754;2023-03-23T03:37:42;11.32;92.70
65460;DHT22;52058;49.822;6.754;2023-03-23T03:40:13;11.36;92.44
65460;DHT22;52058;49.822;6.754;2023-03-23T03:42:43;11.33;92.24
65460;DHT22;52058;49.822;6.754;2023-03-23T03:45:12;11.39;92.13
65460;DHT22;52058;49.822;6.754;2023-03-23T03:47:39;11.40;92.03
65460;DHT22;52058;49.822;6.754;2023-03-23T03:50:07;11.40;92.08
65460;DHT22;52058;49.822;6.754;2023-03-23T03:52:34;11.39;92.33
65460;DHT22;52058;49.822;6.754;2023-03-23T03:55:02;11.42;92.15
65460;DHT22;52058;49.822;6.754;2023-03-23T03:57:29;11.36;92.91
65460;DHT22;52058;49.822;6.754;2023-03-23T03:59:55;11.37;92.53
65460;DHT22;52058;49.822;6.754;2023-03-23T04:02:22;11.35;92.45
65460;DHT22;52058;49.822;6.754;2023-03-23T04:04:49;11.39;92.49
65460;DHT22;52058;49.822;6.754;2023-03-23T04:07:18;11.39;92.66
65460;DHT22;52058;49.822;6.754;2023-03-23T04:09:45;11.39;92.62
65460;DHT22;52058;49.822;6.754;2023-03-23T04:12:14;11.40;92.45
65460;DHT22;52058;49.822;6.754;2023-03-23T04:14:41;11.46;92.26
65460;DHT22;52058;49.822;6.754;2023-03-23T04:17:07;11.46;91.77
65460;DHT22;52058;49.822;6.754;2023-03-23T04:19:36;11.46;91.90
65460;DHT22;52058;49.822;6.754;2023-03-23T04:22:03;11.44;92.34
65460;DHT22;52058;49.822;6.754;2023-03-23T04:24:30;11.44;92.13
65460;DHT22;52058;49.822;6.754;2023-03-23T04:26:58;11.47;92.14
65460;DHT22;52058;49.822;6.754;2023-03-23T04:29:27;11.47;92.13
65460;DHT22;52058;49.822;6.754;2023-03-23T04:31:53;11.47;92.32
65460;DHT22;52058;49.822;6.754;2023-03-23T04:34:21;11.52;91.82
65460;DHT22;52058;49.822;6.754;2023-03-23T04:36:48;11.53;91.79
65460;DHT22;52058;49.822;6.754;2023-03-23T04:39:16;11.56;91.82
65460;DHT22;52058;49.822;6.754;2023-03-23T04:41:43;11.52;91.93
65460;DHT22;52058;49.822;6.754;2023-03-23T04:44:12;11.55;91.59
65460;DHT22;52058;49.822;6.754;2023-03-23T04:46:44;11.52;92.01
65460;DHT22;52058;49.822;6.754;2023-03-23T04:49:15;11.57;91.61
65460;DHT22;52058;49.822;6.754;2023-03-23T04:51:46;11.53;91.81
65460;DHT22;52058;49.822;6.754;2023-03-23T04:54:13;11.52;92.06
65460;DHT22;52058;49.822;6.754;2023-03-23T04:56:39;11.53;91.87
65460;DHT22;52058;49.822;6.754;2023-03-23T04:59:07;11.49;92.23
65460;DHT22;52058;49.822;6.754;2023-03-23T05:01:34;11.49;92.07
65460;DHT22;52058;49.822;6.754;2023-03-23T05:04:03;11.53;91.61
65460;DHT22;52058;49.822;6.754;2023-03-23T05:06:29;11.49;91.84
65460;DHT22;52058;49.822;6.754;2023-03-23T05:08:56;11.42;92.26
65460;DHT22;52058;49.822;6.754;2023-03-23T05:11:23;11.44;91.41
65460;DHT22;52058;49.822;6.754;2023-03-23T05:13:50;11.47;91.44
65460;DHT22;52058;49.822;6.754;2023-03-23T05:16:17;11.44;91.94
65460;DHT22;52058;49.822;6.754;2023-03-23T05:18:43;11.43;91.82
65460;DHT22;52058;49.822;6.754;2023-03-23T05:21:13;11.46;92.05
65460;DHT22;52058;49.822;6.754;2023-03-23T05:23:40;11.44;91.83
65460;DHT22;52058;49.822;6.754;2023-03-23T05:26:07;11.43;91.99
65460;DHT22;52058;49.822;6.754;2023-03-23T05:28:34;11.47;91.92
65460;DHT22;52058;49.822;6.754;2023-03-23T05:31:01;11.47;91.46
65460;DHT22;52058;49.822;6.754;2023-03-23T05:33:28;11.49;91.17
65460;DHT22;52058;49.822;6.754;2023-03-23T05:35:55;11.53;90.98
65460;DHT22;52058;49.822;6.754;2023-03-23T05:38:23;11.57;91.16
65460;DHT22;52058;49.822;6.754;2023-03-23T05:40:49;11.57;90.84
65460;DHT22;52058;49.822;6.754;2023-03-23T05:43:17;11.57;91.07
65460;DHT22;52058;49.822;6.754;2023-03-23T05:45:44;11.59;91.28
65460;DHT22;52058;49.822;6.754;2023-03-23T05:48:10;11.62;90.86
65460;DHT22;52058;49.822;6.754;2023-03-23T05:50:37;11.63;90.88
65460;DHT22;52058;49.822;6.754;2023-03-23T05:53:03;11.65;91.57
65460;DHT22;52058;49.822;6.754;2023-03-23T05:55:31;11.65;91.33
65460;DHT22;52058;49.822;6.754;2023-03-23T05:57:59;11.63;91.66
65460;DHT22;52058;49.822;6.754;2023-03-23T06:00:25;11.62;91.86
65460;DHT22;52058;49.822;6.754;2023-03-23T06:02:55;11.67;91.96
65460;DHT22;52058;49.822;6.754;2023-03-23T06:05:22;11.67;92.16
65460;DHT22;52058;49.822;6.754;2023-03-23T06:07:51;11.67;92.20
65460;DHT22;52058;49.822;6.754;2023-03-23T06:10:17;11.69;92.40
65460;DHT22;52058;49.822;6.754;2023-03-23T06:12:45;11.73;92.38
65460;DHT22;52058;49.822;6.754;2023-03-23T06:15:12;11.74;92.46
65460;DHT22;52058;49.822;6.754;2023-03-23T06:17:39;11.77;92.38
65460;DHT22;52058;49.822;6.754;2023-03-23T06:20:07;11.73;92.44
65460;DHT22;52058;49.822;6.754;2023-03-23T06:22:35;11.77;92.54
65460;DHT22;52058;49.822;6.754;2023-03-23T06:25:03;11.83;92.37
65460;DHT22;52058;49.822;6.754;2023-03-23T06:27:30;11.88;92.04
65460;DHT22;52058;49.822;6.754;2023-03-23T06:29:58;11.86;92.16
65460;DHT22;52058;49.822;6.754;2023-03-23T06:32:27;11.91;91.85
65460;DHT22;52058;49.822;6.754;2023-03-23T06:34:55;11.94;91.85
65460;DHT22;52058;49.822;6.754;2023-03-23T06:37:22;11.93;91.57
65460;DHT22;52058;49.822;6.754;2023-03-23T06:39:49;11.95;91.69
65460;DHT22;52058;49.822;6.754;2023-03-23T06:42:17;11.95;91.56
65460;DHT22;52058;49.822;6.754;2023-03-23T06:44:44;12.01;91.40
65460;DHT22;52058;49.822;6.754;2023-03-23T06:47:12;12.10;91.33
65460;DHT22;52058;49.822;6.754;2023-03-23T06:49:38;12.17;91.36
65460;DHT22;52058;49.822;6.754;2023-03-23T06:52:05;12.35;90.60
65460;DHT22;52058;49.822;6.754;2023-03-23T06:54:32;12.41;89.80
65460;DHT22;52058;49.822;6.754;2023-03-23T06:56:59;12.59;89.63
65460;DHT22;52058;49.822;6.754;2023-03-23T06:59:26;12.55;89.84
65460;DHT22;52058;49.822;6.754;2023-03-23T07:01:52;12.52;89.23
65460;DHT22;52058;49.822;6.754;2023-03-23T07:04:20;12.52;89.39
65460;DHT22;52058;49.822;6.754;2023-03-23T07:06:49;12.52;89.23
65460;DHT22;52058;49.822;6.754;2023-03-23T07:09:15;12.53;89.34
65460;DHT22;52058;49.822;6.754;2023-03-23T07:11:42;12.59;89.03
65460;DHT22;52058;49.822;6.754;2023-03-23T07:14:08;12.60;89.04
65460;DHT22;52058;49.822;6.754;2023-03-23T07:16:35;12.53;88.92
65460;DHT22;52058;49.822;6.754;2023-03-23T07:19:02;12.50;89.10
65460;DHT22;52058;49.822;6.754;2023-03-23T07:21:30;12.55;89.03
65460;DHT22;52058;49.822;6.754;2023-03-23T07:23:57;12.56;88.53
65460;DHT22;52058;49.822;6.754;2023-03-23T07:26:23;12.63;88.53
65460;DHT22;52058;49.822;6.754;2023-03-23T07:28:50;12.65;87.87
65460;DHT22;52058;49.822;6.754;2023-03-23T07:31:17;12.67;88.15
65460;DHT22;52058;49.822;6.754;2023-03-23T07:33:43;12.82;88.06
65460;DHT22;52058;49.822;6.754;2023-03-23T07:36:10;12.77;87.93
65460;DHT22;52058;49.822;6.754;2023-03-23T07:38:38;12.83;87.24
65460;DHT22;52058;49.822;6.754;2023-03-23T07:41:06;12.86;87.32
65460;DHT22;52058;49.822;6.754;2023-03-23T07:43:32;12.86;86.99
65460;DHT22;52058;49.822;6.754;2023-03-23T07:45:59;12.82;86.41
65460;DHT22;52058;49.822;6.754;2023-03-23T07:48:26;12.83;86.87
65460;DHT22;52058;49.822;6.754;2023-03-23T07:50:53;12.90;86.34
65460;DHT22;52058;49.822;6.754;2023-03-23T07:53:19;12.96;86.08
65460;DHT22;52058;49.822;6.754;2023-03-23T07:55:48;12.92;86.23
65460;DHT22;52058;49.822;6.754;2023-03-23T07:58:14;12.92;86.35
65460;DHT22;52058;49.822;6.754;2023-03-23T08:00:44;12.99;86.12
65460;DHT22;52058;49.822;6.754;2023-03-23T08:03:12;13.02;86.73
65460;DHT22;52058;49.822;6.754;2023-03-23T08:05:38;13.17;86.81
65460;DHT22;52058;49.822;6.754;2023-03-23T08:08:07;13.15;86.47
65460;DHT22;52058;49.822;6.754;2023-03-23T08:10:35;13.24;85.47
65460;DHT22;52058;49.822;6.754;2023-03-23T08:13:04;13.40;85.60
65460;DHT22;52058;49.822;6.754;2023-03-23T08:15:31;13.25;86.10
65460;DHT22;52058;49.822;6.754;2023-03-23T08:18:03;13.13;86.61
65460;DHT22;52058;49.822;6.754;2023-03-23T08:20:30;13.14;87.35
65460;DHT22;52058;49.822;6.754;2023-03-23T08:22:58;12.99;88.16
65460;DHT22;52058;49.822;6.754;2023-03-23T08:25:25;12.94;88.20
65460;DHT22;52058;49.822;6.754;2023-03-23T08:27:52;12.82;88.03
65460;DHT22;52058;49.822;6.754;2023-03-23T08:30:21;12.86;87.89
65460;DHT22;52058;49.822;6.754;2023-03-23T08:32:50;12.92;88.04
65460;DHT22;52058;49.822;6.754;2023-03-23T08:35:17;13.11;88.06
65460;DHT22;52058;49.822;6.754;2023-03-23T08:37:45;13.17;88.26
65460;DHT22;52058;49.822;6.754;2023-03-23T08:40:17;13.10;87.71
65460;DHT22;52058;49.822;6.754;2023-03-23T08:42:45;13.20;87.57
65460;DHT22;52058;49.822;6.754;2023-03-23T08:45:14;13.31;87.21
65460;DHT22;52058;49.822;6.754;2023-03-23T08:47:43;13.23;86.70
65460;DHT22;52058;49.822;6.754;2023-03-23T08:50:13;13.27;87.11
65460;DHT22;52058;49.822;6.754;2023-03-23T08:52:41;13.31;87.24
65460;DHT22;52058;49.822;6.754;2023-03-23T08:55:09;13.18;86.95
65460;DHT22;52058;49.822;6.754;2023-03-23T08:57:36;12.90;88.23
65460;DHT22;52058;49.822;6.754;2023-03-23T09:00:04;12.70;89.01
65460;DHT22;52058;49.822;6.754;2023-03-23T09:02:39;12.55;89.99
65460;DHT22;52058;49.822;6.754;2023-03-23T09:05:07;12.44;89.91
65460;DHT22;52058;49.822;6.754;2023-03-23T09:07:35;12.36;89.26
65460;DHT22;52058;49.822;6.754;2023-03-23T09:10:02;12.50;89.61
65460;DHT22;52058;49.822;6.754;2023-03-23T09:12:29;12.57;89.54
65460;DHT22;52058;49.822;6.754;2023-03-23T09:14:56;12.70;88.92
65460;DHT22;52058;49.822;6.754;2023-03-23T09:17:22;12.90;88.57
65460;DHT22;52058;49.822;6.754;2023-03-23T09:19:49;13.07;88.20
65460;DHT22;52058;49.822;6.754;2023-03-23T09:22:17;13.25;87.03
65460;DHT22;52058;49.822;6.754;2023-03-23T09:24:45;13.18;87.62
65460;DHT22;52058;49.822;6.754;2023-03-23T09:27:12;13.37;87.88
65460;DHT22;52058;49.822;6.754;2023-03-23T09:29:38;13.30;87.43
65460;DHT22;52058;49.822;6.754;2023-03-23T09:32:06;13.44;87.78
65460;DHT22;52058;49.822;6.754;2023-03-23T09:34:33;13.44;87.11
65460;DHT22;52058;49.822;6.754;2023-03-23T09:37:01;13.61;85.79
65460;DHT22;52058;49.822;6.754;2023-03-23T09:39:30;13.71;85.54
65460;DHT22;52058;49.822;6.754;2023-03-23T09:42:10;13.98;85.13
65460;DHT22;52058;49.822;6.754;2023-03-23T09:44:51;14.23;84.81
65460;DHT22;52058;49.822;6.754;2023-03-23T09:47:25;14.24;83.97
65460;DHT22;52058;49.822;6.754;2023-03-23T09:49:57;14.38;84.23
65460;DHT22;52058;49.822;6.754;2023-03-23T09:52:34;14.60;83.19
65460;DHT22;52058;49.822;6.754;2023-03-23T09:55:04;14.79;82.29
65460;DHT22;52058;49.822;6.754;2023-03-23T09:57:37;14.84;81.37
65460;DHT22;52058;49.822;6.754;2023-03-23T10:00:11;14.70;81.95
65460;DHT22;52058;49.822;6.754;2023-03-23T10:02:44;14.75;81.44
65460;DHT22;52058;49.822;6.754;2023-03-23T10:05:25;14.82;80.91
65460;DHT22;52058;49.822;6.754;2023-03-23T10:07:53;14.82;81.23
65460;DHT22;52058;49.822;6.754;2023-03-23T10:10:24;14.75;81.28
65460;DHT22;52058;49.822;6.754;2023-03-23T10:12:56;14.60;80.81
65460;DHT22;52058;49.822;6.754;2023-03-23T10:15:27;14.45;81.39
65460;DHT22;52058;49.822;6.754;2023-03-23T10:17:58;14.70;81.14
65460;DHT22;52058;49.822;6.754;2023-03-23T10:20:32;14.78;80.76
65460;DHT22;52058;49.822;6.754;2023-03-23T10:23:05;14.57;80.83
65460;DHT22;52058;49.822;6.754;2023-03-23T10:25:39;14.65;80.69
65460;DHT22;52058;49.822;6.754;2023-03-23T10:28:11;14.67;81.01
65460;DHT22;52058;49.822;6.754;2023-03-23T10:30:40;14.78;80.50
65460;DHT22;52058;49.822;6.754;2023-03-23T10:33:13;14.82;80.17
65460;DHT22;52058;49.822;6.754;2023-03-23T10:35:45;15.20;78.89
65460;DHT22;52058;49.822;6.754;2023-03-23T10:38:17;15.40;79.54
65460;DHT22;52058;49.822;6.754;2023-03-23T10:40:50;15.40;79.01
65460;DHT22;52058;49.822;6.754;2023-03-23T10:43:19;15.35;80.07
65460;DHT22;52058;49.822;6.754;2023-03-23T10:45:50;15.06;79.95
65460;DHT22;52058;49.822;6.754;2023-03-23T10:48:24;14.93;79.53
65460;DHT22;52058;49.822;6.754;2023-03-23T10:50:55;15.71;78.87
65460;DHT22;52058;49.822;6.754;2023-03-23T10:53:25;15.61;76.57
65460;DHT22;52058;49.822;6.754;2023-03-23T10:55:55;15.59;77.17
65460;DHT22;52058;49.822;6.754;2023-03-23T10:58:25;15.64;77.14
65460;DHT22;52058;49.822;6.754;2023-03-23T11:00:54;15.64;77.17
65460;DHT22;52058;49.822;6.754;2023-03-23T11:03:24;15.81;76.81
65460;DHT22;52058;49.822;6.754;2023-03-23T11:05:56;16.00;75.65
65460;DHT22;52058;49.822;6.754;2023-03-23T11:08:25;15.98;75.47
65460;DHT22;52058;49.822;6.754;2023-03-23T11:10:57;15.77;74.64
65460;DHT22;52058;49.822;6.754;2023-03-23T11:13:29;15.86;75.21
65460;DHT22;52058;49.822;6.754;2023-03-23T11:15:57;15.78;75.30
65460;DHT22;52058;49.822;6.754;2023-03-23T11:18:25;15.90;75.91
65460;DHT22;52058;49.822;6.754;2023-03-23T11:20:55;15.87;74.36
65460;DHT22;52058;49.822;6.754;2023-03-23T11:23:24;16.02;74.33
65460;DHT22;52058;49.822;6.754;2023-03-23T11:25:57;16.08;73.74
65460;DHT22;52058;49.822;6.754;2023-03-23T11:28:32;16.60;73.62
65460;DHT22;52058;49.822;6.754;2023-03-23T11:31:03;16.77;72.12
65460;DHT22;52058;49.822;6.754;2023-03-23T11:33:36;16.83;71.80
65460;DHT22;52058;49.822;6.754;2023-03-23T11:36:04;16.65;72.41
65460;DHT22;52058;49.822;6.754;2023-03-23T11:38:32;16.77;71.92
65460;DHT22;52058;49.822;6.754;2023-03-23T11:41:01;16.97;71.90
65460;DHT22;52058;49.822;6.754;2023-03-23T11:43:28;17.36;71.61
65460;DHT22;52058;49.822;6.754;2023-03-23T11:46:01;17.10;71.00
65460;DHT22;52058;49.822;6.754;2023-03-23T11:48:35;17.24;71.70
65460;DHT22;52058;49.822;6.754;2023-03-23T11:51:06;17.18;70.99
65460;DHT22;52058;49.822;6.754;2023-03-23T11:53:42;17.20;70.54
65460;DHT22;52058;49.822;6.754;2023-03-23T11:56:17;17.27;70.84
65460;DHT22;52058;49.822;6.754;2023-03-23T11:58:45;17.25;71.17
65460;DHT22;52058;49.822;6.754;2023-03-23T12:01:21;17.31;71.47
65460;DHT22;52058;49.822;6.754;2023-03-23T12:03:58;16.87;70.90
65460;DHT22;52058;49.822;6.754;2023-03-23T12:06:35;16.96;71.25
65460;DHT22;52058;49.822;6.754;2023-03-23T12:09:09;16.53;72.20
65460;DHT22;52058;49.822;6.754;2023-03-23T12:12:09;16.45;72.44
65460;DHT22;52058;49.822;6.754;2023-03-23T12:14:44;16.69;72.19
65460;DHT22;52058;49.822;6.754;2023-03-23T12:17:20;16.65;72.10
65460;DHT22;52058;49.822;6.754;2023-03-23T12:19:57;16.48;72.88
65460;DHT22;52058;49.822;6.754;2023-03-23T12:22:35;15.67;74.09
65460;DHT22;52058;49.822;6.754;2023-03-23T12:25:16;15.49;75.20
65460;DHT22;52058;49.822;6.754;2023-03-23T12:27:50;15.19;75.90
65460;DHT22;52058;49.822;6.754;2023-03-23T12:30:29;14.88;77.07
65460;DHT22;52058;49.822;6.754;2023-03-23T12:33:23;14.98;77.81
65460;DHT22;52058;49.822;6.754;2023-03-23T12:36:03;14.79;78.00
65460;DHT22;52058;49.822;6.754;2023-03-23T12:38:46;14.78;78.08
65460;DHT22;52058;49.822;6.754;2023-03-23T12:41:16;14.57;78.70
65460;DHT22;52058;49.822;6.754;2023-03-23T12:43:51;14.48;78.92
65460;DHT22;52058;49.822;6.754;2023-03-23T12:49:18;14.64;78.31
65460;DHT22;52058;49.822;6.754;2023-03-23T12:51:51;15.16;77.18
65460;DHT22;52058;49.822;6.754;2023-03-23T12:54:26;15.30;76.85
65460;DHT22;52058;49.822;6.754;2023-03-23T12:56:58;15.13;76.08
65460;DHT22;52058;49.822;6.754;2023-03-23T12:59:33;14.88;76.95
65460;DHT22;52058;49.822;6.754;2023-03-23T13:02:07;14.70;77.71
65460;DHT22;52058;49.822;6.754;2023-03-23T13:04:40;14.54;78.09
65460;DHT22;52058;49.822;6.754;2023-03-23T13:07:13;14.45;79.27
65460;DHT22;52058;49.822;6.754;2023-03-23T13:09:48;14.36;79.14
65460;DHT22;52058;49.822;6.754;2023-03-23T13:12:17;14.30;78.94
65460;DHT22;52058;49.822;6.754;2023-03-23T13:14:52;14.34;78.23
65460;DHT22;52058;49.822;6.754;2023-03-23T13:17:29;14.74;77.92
65460;DHT22;52058;49.822;6.754;2023-03-23T13:22:49;14.75;77.64
65460;DHT22;52058;49.822;6.754;2023-03-23T13:25:19;14.63;77.70
65460;DHT22;52058;49.822;6.754;2023-03-23T13:27:56;14.93;76.61
65460;DHT22;52058;49.822;6.754;2023-03-23T13:30:24;15.00;76.81
65460;DHT22;52058;49.822;6.754;2023-03-23T13:33:02;14.81;76.73
65460;DHT22;52058;49.822;6.754;2023-03-23T13:35:34;14.96;76.31
65460;DHT22;52058;49.822;6.754;2023-03-23T13:38:01;15.19;76.04
65460;DHT22;52058;49.822;6.754;2023-03-23T13:40:29;17.52;70.08
65460;DHT22;52058;49.822;6.754;2023-03-23T13:42:58;17.72;67.06
65460;DHT22;52058;49.822;6.754;2023-03-23T13:45:43;16.79;70.30
65460;DHT22;52058;49.822;6.754;2023-03-23T13:48:20;16.67;70.59
65460;DHT22;52058;49.822;6.754;2023-03-23T13:50:51;16.53;70.57
65460;DHT22;52058;49.822;6.754;2023-03-23T13:53:24;19.20;64.85
65460;DHT22;52058;49.822;6.754;2023-03-23T13:56:03;20.26;61.59
65460;DHT22;52058;49.822;6.754;2023-03-23T13:58:30;18.75;63.22
65460;DHT22;52058;49.822;6.754;2023-03-23T14:01:13;17.75;66.13
65460;DHT22;52058;49.822;6.754;2023-03-23T14:03:42;16.81;67.22
65460;DHT22;52058;49.822;6.754;2023-03-23T14:06:13;16.90;66.89
65460;DHT22;52058;49.822;6.754;2023-03-23T14:08:43;16.87;67.24
65460;DHT22;52058;49.822;6.754;2023-03-23T14:11:13;17.90;65.33
65460;DHT22;52058;49.822;6.754;2023-03-23T14:13:45;16.99;67.05
65460;DHT22;52058;49.822;6.754;2023-03-23T14:16:19;17.11;67.33
65460;DHT22;52058;49.822;6.754;2023-03-23T14:18:52;16.84;69.38
65460;DHT22;52058;49.822;6.754;2023-03-23T14:21:25;16.32;71.00
65460;DHT22;52058;49.822;6.754;2023-03-23T14:23:51;16.21;71.78
65460;DHT22;52058;49.822;6.754;2023-03-23T14:26:20;16.14;72.57
65460;DHT22;52058;49.822;6.754;2023-03-23T14:28:50;15.67;73.28
65460;DHT22;52058;49.822;6.754;2023-03-23T14:31:20;15.39;74.61
65460;DHT22;52058;49.822;6.754;2023-03-23T14:33:48;15.88;73.91
65460;DHT22;52058;49.822;6.754;2023-03-23T14:36:20;16.07;72.73
65460;DHT22;52058;49.822;6.754;2023-03-23T14:38:47;15.87;73.42
65460;DHT22;52058;49.822;6.754;2023-03-23T14:41:14;15.63;74.33
65460;DHT22;52058;49.822;6.754;2023-03-23T14:43:41;15.54;75.01
65460;DHT22;52058;49.822;6.754;2023-03-23T14:46:09;15.67;74.35
65460;DHT22;52058;49.822;6.754;2023-03-23T14:48:39;16.00;73.33
65460;DHT22;52058;49.822;6.754;2023-03-23T14:51:06;16.28;71.96
65460;DHT22;52058;49.822;6.754;2023-03-23T14:53:36;15.96;72.58
65460;DHT22;52058;49.822;6.754;2023-03-23T14:56:09;16.04;72.52
65460;DHT22;52058;49.822;6.754;2023-03-23T14:58:36;16.19;71.83
65460;DHT22;52058;49.822;6.754;2023-03-23T15:01:06;16.22;71.88
65460;DHT22;52058;49.822;6.754;2023-03-23T15:03:35;15.96;71.93
65460;DHT22;52058;49.822;6.754;2023-03-23T15:06:06;16.45;71.04
65460;DHT22;52058;49.822;6.754;2023-03-23T15:08:36;16.14;71.28
65460;DHT22;52058;49.822;6.754;2023-03-23T15:11:06;16.08;72.38
65460;DHT22;52058;49.822;6.754;2023-03-23T15:13:35;15.91;71.92
65460;DHT22;52058;49.822;6.754;2023-03-23T15:16:04;15.97;72.16
65460;DHT22;52058;49.822;6.754;2023-03-23T15:18:35;15.96;71.72
65460;DHT22;52058;49.822;6.754;2023-03-23T15:21:11;15.84;71.74
65460;DHT22;52058;49.822;6.754;2023-03-23T15:23:42;15.78;71.92
65460;DHT22;52058;49.822;6.754;2023-03-23T15:26:27;15.80;72.21
65460;DHT22;52058;49.822;6.754;2023-03-23T15:29:08;15.61;72.52
65460;DHT22;52058;49.822;6.754;2023-03-23T15:31:39;15.51;71.94
65460;DHT22;52058;49.822;6.754;2023-03-23T15:34:15;15.36;72.18
65460;DHT22;52058;49.822;6.754;2023-03-23T15:36:44;15.42;73.09
65460;DHT22;52058;49.822;6.754;2023-03-23T15:39:12;15.43;73.35
65460;DHT22;52058;49.822;6.754;2023-03-23T15:41:47;15.36;74.17
65460;DHT22;52058;49.822;6.754;2023-03-23T15:44:25;15.39;73.82
65460;DHT22;52058;49.822;6.754;2023-03-23T15:46:53;15.42;74.64
65460;DHT22;52058;49.822;6.754;2023-03-23T15:49:27;15.29;74.29
65460;DHT22;52058;49.822;6.754;2023-03-23T15:51:55;15.33;74.49
65460;DHT22;52058;49.822;6.754;2023-03-23T15:54:22;15.49;73.91
65460;DHT22;52058;49.822;6.754;2023-03-23T15:56:48;15.56;73.21